Isle Of Innisfree — EIBW — position and weather

sailwx.info

Track history (hours):
 
Tides and Currents Weather Stations Pressure Air Temp Water Temp Dewpoint Dewpoint Depression Visibility Wind Speed Wind Dir Waves Ship Positions

Isle Of Innisfree

Operator: Irish Ferries

Last reported at 2018-Aug-12 05:23 UTC. Time now 2018-Aug-18 00:47 UTC.
Position N 48°01' W 004°46'.

Length 36 m; draft 6.6 m.

Type: Fishing. MMSI: 250102800.

Date/timePositionNaut miles runAvg speedWind from/ knotsBaromVisibWave heightAir tempDewpointWater temp
2018-Aug-12 05:23N 48°01' W 004°46'411.5
2018-Aug-12 05:01N 48°05' W 004°42'510.2
2018-Aug-12 04:30N 48°06' W 004°35'5 9.8
2018-Aug-12 04:01N 48°07' W 004°27'5 9.6
2018-Aug-12 03:30N 48°07' W 004°20'1 2.0
2018-Aug-12 03:00N 48°06' W 004°20'0 0.0
2018-Aug-12 02:31N 48°06' W 004°20'0 0.0
2018-Aug-12 02:00N 48°06' W 004°20'0 0.0
2018-Aug-12 01:30N 48°06' W 004°20'0 0.0
2018-Aug-12 01:00N 48°06' W 004°20'0 0.0
2018-Aug-12 00:30N 48°06' W 004°20'0 0.0
2018-Aug-12 00:00N 48°06' W 004°20'0 0.0
2018-Aug-11 23:30N 48°06' W 004°20'0 0.0
2018-Aug-11 23:00N 48°06' W 004°20'0 0.0
2018-Aug-11 22:30N 48°06' W 004°20'0 0.0
2018-Aug-11 22:01N 48°06' W 004°20'0 0.0
2018-Aug-11 21:30N 48°06' W 004°20'0 0.0
2018-Aug-11 21:00N 48°06' W 004°20'0 0.0
2018-Aug-11 20:30N 48°06' W 004°20'0 0.0
2018-Aug-11 20:00N 48°06' W 004°20'0 0.2
2018-Aug-11 19:30N 48°06' W 004°19'0 0.0
2018-Aug-11 19:00N 48°06' W 004°19'0 0.0
2018-Aug-11 18:30N 48°06' W 004°19'0 0.0
2018-Aug-11 18:01N 48°06' W 004°19'0 0.0
2018-Aug-11 17:31N 48°06' W 004°19'0 0.0
2018-Aug-11 17:00N 48°06' W 004°19'0 0.0
2018-Aug-11 16:30N 48°06' W 004°19'0 0.0
2018-Aug-11 16:00N 48°06' W 004°19'3 6.6
2018-Aug-11 15:30N 48°07' W 004°24'611.1
2018-Aug-11 15:00N 48°06' W 004°32'611.3
2018-Aug-11 14:31N 48°05' W 004°40'5 9.4
2018-Aug-11 14:01N 48°02' W 004°46'612.0
2018-Aug-11 13:30N 47°57' W 004°49'611.9
2018-Aug-11 13:00N 47°51' W 004°51'  
2018-Aug-05 13:42N 47°57' W 004°47'312.3
2018-Aug-05 13:29N 47°59' W 004°47'611.7
2018-Aug-05 13:00N 48°04' W 004°43'611.2
2018-Aug-05 12:30N 48°06' W 004°35'611.1
2018-Aug-05 12:00N 48°07' W 004°27'510.3
2018-Aug-05 11:30N 48°06' W 004°19'0 0.6
2018-Aug-05 11:00N 48°06' W 004°19'0 0.0
2018-Aug-05 10:30N 48°06' W 004°19'0 0.0
2018-Aug-05 10:00N 48°06' W 004°19'0 0.0
2018-Aug-05 09:30N 48°06' W 004°19'0 0.0
2018-Aug-05 09:00N 48°06' W 004°19'0 0.0
2018-Aug-05 08:30N 48°06' W 004°19'0 0.0
2018-Aug-05 08:00N 48°06' W 004°19'0 0.0
2018-Aug-05 07:30N 48°06' W 004°19'0 0.0
2018-Aug-05 07:00N 48°06' W 004°19'0 0.0
2018-Aug-05 06:30N 48°06' W 004°19'0 0.0
2018-Aug-05 06:00N 48°06' W 004°19'0 0.0
2018-Aug-05 05:30N 48°06' W 004°19'0 0.0
2018-Aug-05 05:00N 48°06' W 004°19'0 0.0
2018-Aug-05 04:30N 48°06' W 004°19'0 0.0
2018-Aug-05 04:00N 48°06' W 004°19'0 0.0
2018-Aug-05 03:30N 48°06' W 004°19'0 0.0
2018-Aug-05 03:00N 48°06' W 004°19'0 0.0
2018-Aug-05 02:30N 48°06' W 004°19'0 0.2
2018-Aug-05 02:00N 48°06' W 004°20'0 0.0
2018-Aug-05 01:30N 48°06' W 004°20'0 0.0
2018-Aug-05 01:00N 48°06' W 004°20'0 0.0
2018-Aug-05 00:30N 48°06' W 004°20'0 0.0
2018-Aug-05 00:00N 48°06' W 004°20'0 0.2
2018-Aug-04 23:30N 48°06' W 004°19'0 0.0
2018-Aug-04 23:00N 48°06' W 004°19'0 0.0
2018-Aug-04 22:30N 48°06' W 004°19'0 0.0
2018-Aug-04 22:00N 48°06' W 004°19'0 0.0
2018-Aug-04 21:30N 48°06' W 004°19'0 0.0
2018-Aug-04 21:00N 48°06' W 004°19'0 0.0
2018-Aug-04 20:30N 48°06' W 004°19'0 0.0
2018-Aug-04 20:00N 48°06' W 004°19'0 0.0
2018-Aug-04 19:30N 48°06' W 004°19'0 0.0
2018-Aug-04 19:00N 48°06' W 004°19'0 0.0
2018-Aug-04 18:30N 48°06' W 004°19'2 3.1
2018-Aug-04 18:00N 48°07' W 004°21'510.7
2018-Aug-04 17:30N 48°07' W 004°29'611.1
2018-Aug-04 17:00N 48°05' W 004°37'611.6
2018-Aug-04 16:30N 48°04' W 004°45'612.1
2018-Aug-04 16:01N 47°58' W 004°47'611.4
2018-Aug-04 15:30N 47°52' W 004°46'510.6
2018-Aug-04 15:00N 47°47' W 004°45'610.4
2018-Aug-04 14:29N 47°41' W 004°44'  
Track history (hours):
 
Tides and Currents Weather Stations Pressure Air Temp Water Temp Dewpoint Dewpoint Depression Visibility Wind Speed Wind Dir Waves Ship Positions

Isle Of Innisfree

Operator: Irish Ferries

Last reported at 2018-Aug-12 05:23 UTC. Time now 2018-Aug-18 00:47 UTC.
Position N 48°01' W 004°46'.

Length 36 m; draft 6.6 m.

Type: Fishing. MMSI: 250102800.

Date/timePositionNaut miles runAvg speedWind from/ knotsBaromVisibWave heightAir tempDewpointWater temp
2018-Aug-12 05:23N 48°01' W 004°46'411.5
2018-Aug-12 05:01N 48°05' W 004°42'510.2
2018-Aug-12 04:30N 48°06' W 004°35'5 9.8
2018-Aug-12 04:01N 48°07' W 004°27'5 9.6
2018-Aug-12 03:30N 48°07' W 004°20'1 2.0
2018-Aug-12 03:00N 48°06' W 004°20'0 0.0
2018-Aug-12 02:31N 48°06' W 004°20'0 0.0
2018-Aug-12 02:00N 48°06' W 004°20'0 0.0
2018-Aug-12 01:30N 48°06' W 004°20'0 0.0
2018-Aug-12 01:00N 48°06' W 004°20'0 0.0
2018-Aug-12 00:30N 48°06' W 004°20'0 0.0
2018-Aug-12 00:00N 48°06' W 004°20'0 0.0
2018-Aug-11 23:30N 48°06' W 004°20'0 0.0
2018-Aug-11 23:00N 48°06' W 004°20'0 0.0
2018-Aug-11 22:30N 48°06' W 004°20'0 0.0
2018-Aug-11 22:01N 48°06' W 004°20'0 0.0
2018-Aug-11 21:30N 48°06' W 004°20'0 0.0
2018-Aug-11 21:00N 48°06' W 004°20'0 0.0
2018-Aug-11 20:30N 48°06' W 004°20'0 0.0
2018-Aug-11 20:00N 48°06' W 004°20'0 0.2
2018-Aug-11 19:30N 48°06' W 004°19'0 0.0
2018-Aug-11 19:00N 48°06' W 004°19'0 0.0
2018-Aug-11 18:30N 48°06' W 004°19'0 0.0
2018-Aug-11 18:01N 48°06' W 004°19'0 0.0
2018-Aug-11 17:31N 48°06' W 004°19'0 0.0
2018-Aug-11 17:00N 48°06' W 004°19'0 0.0
2018-Aug-11 16:30N 48°06' W 004°19'0 0.0
2018-Aug-11 16:00N 48°06' W 004°19'3 6.6
2018-Aug-11 15:30N 48°07' W 004°24'611.1
2018-Aug-11 15:00N 48°06' W 004°32'611.3
2018-Aug-11 14:31N 48°05' W 004°40'5 9.4
2018-Aug-11 14:01N 48°02' W 004°46'612.0
2018-Aug-11 13:30N 47°57' W 004°49'611.9
2018-Aug-11 13:00N 47°51' W 004°51'  
2018-Aug-05 13:42N 47°57' W 004°47'312.3
2018-Aug-05 13:29N 47°59' W 004°47'611.7
2018-Aug-05 13:00N 48°04' W 004°43'611.2
2018-Aug-05 12:30N 48°06' W 004°35'611.1
2018-Aug-05 12:00N 48°07' W 004°27'510.3
2018-Aug-05 11:30N 48°06' W 004°19'0 0.6
2018-Aug-05 11:00N 48°06' W 004°19'0 0.0
2018-Aug-05 10:30N 48°06' W 004°19'0 0.0
2018-Aug-05 10:00N 48°06' W 004°19'0 0.0
2018-Aug-05 09:30N 48°06' W 004°19'0 0.0
2018-Aug-05 09:00N 48°06' W 004°19'0 0.0
2018-Aug-05 08:30N 48°06' W 004°19'0 0.0
2018-Aug-05 08:00N 48°06' W 004°19'0 0.0
2018-Aug-05 07:30N 48°06' W 004°19'0 0.0
2018-Aug-05 07:00N 48°06' W 004°19'0 0.0
2018-Aug-05 06:30N 48°06' W 004°19'0 0.0
2018-Aug-05 06:00N 48°06' W 004°19'0 0.0
2018-Aug-05 05:30N 48°06' W 004°19'0 0.0
2018-Aug-05 05:00N 48°06' W 004°19'0 0.0
2018-Aug-05 04:30N 48°06' W 004°19'0 0.0
2018-Aug-05 04:00N 48°06' W 004°19'0 0.0
2018-Aug-05 03:30N 48°06' W 004°19'0 0.0
2018-Aug-05 03:00N 48°06' W 004°19'0 0.0
2018-Aug-05 02:30N 48°06' W 004°19'0 0.2
2018-Aug-05 02:00N 48°06' W 004°20'0 0.0
2018-Aug-05 01:30N 48°06' W 004°20'0 0.0
2018-Aug-05 01:00N 48°06' W 004°20'0 0.0
2018-Aug-05 00:30N 48°06' W 004°20'0 0.0
2018-Aug-05 00:00N 48°06' W 004°20'0 0.2
2018-Aug-04 23:30N 48°06' W 004°19'0 0.0
2018-Aug-04 23:00N 48°06' W 004°19'0 0.0
2018-Aug-04 22:30N 48°06' W 004°19'0 0.0
2018-Aug-04 22:00N 48°06' W 004°19'0 0.0
2018-Aug-04 21:30N 48°06' W 004°19'0 0.0
2018-Aug-04 21:00N 48°06' W 004°19'0 0.0
2018-Aug-04 20:30N 48°06' W 004°19'0 0.0
2018-Aug-04 20:00N 48°06' W 004°19'0 0.0
2018-Aug-04 19:30N 48°06' W 004°19'0 0.0
2018-Aug-04 19:00N 48°06' W 004°19'0 0.0
2018-Aug-04 18:30N 48°06' W 004°19'2 3.1
2018-Aug-04 18:00N 48°07' W 004°21'510.7
2018-Aug-04 17:30N 48°07' W 004°29'611.1
2018-Aug-04 17:00N 48°05' W 004°37'611.6
2018-Aug-04 16:30N 48°04' W 004°45'612.1
2018-Aug-04 16:01N 47°58' W 004°47'611.4
2018-Aug-04 15:30N 47°52' W 004°46'510.6
2018-Aug-04 15:00N 47°47' W 004°45'610.4
2018-Aug-04 14:29N 47°41' W 004°44'  

Dump ship's entire track history